Terminal Aerodrome Forecast
Issued by NWS

Home | Current Version | Previous Version | Text Only | Print | Product List | Glossary On
Versions: 1 2 3 4 5 6 7 8 9 10 11 12 13 14 15 16 17
000
FTUS43 KILX 251550 AAA
TAFDEC
TAF AMD
KDEC 251550Z 2516/2612 10014KT 1 1/2SM RA BR VCTS OVC005CB
      TEMPO 2516/2517 3SM SHRA OVC010
     FM251700 08012G18KT P6SM OVC015
     FM252000 07012G18KT P6SM VCTS OVC015CB
      TEMPO 2521/2601 5SM -RA BR OVC012
     FM260100 05012KT P6SM OVC015
     FM260800 03009KT P6SM SCT015=

USA.gov is the U.S. government's official web portal to all federal, state and local government web resources and services.